Terminal Aerodrome Forecast
Issued by NWS

Home | Current Version | Previous Version | Text Only | Print | Product List | Glossary On
Versions: 1 2 3 4 5 6 7 8 9 10 11 12 13 14 15 16 17 18 19 20 21 22 23 24 25 26 27 28 29 30 31 32 33 34 35 36 37 38 39 40
000
FTUS42 KRAH 232340
TAFRWI
TAF
KRWI 232340Z 2400/2424 15010G20KT P6SM SCT012 BKN040
      TEMPO 2402/2406 23020G40KT 1SM +TSRA OVC012CB
     FM240900 19005KT P6SM BKN080
      TEMPO 2409/2413 2SM BR BKN003
     FM241600 21010G18KT P6SM SCT050=

USA.gov is the U.S. government's official web portal to all federal, state and local government web resources and services.